sensor_id;sensor_type;location;lat;lon;timestamp;temperature;humidity
50955;DHT22;36966;48.064;-0.792;2023-03-13T00:00:35;17.50;57.90
50955;DHT22;36966;48.064;-0.792;2023-03-13T00:02:54;17.50;57.90
50955;DHT22;36966;48.064;-0.792;2023-03-13T00:05:13;17.50;57.90
50955;DHT22;36966;48.064;-0.792;2023-03-13T00:07:32;17.50;57.90
50955;DHT22;36966;48.064;-0.792;2023-03-13T00:09:51;17.50;57.90
50955;DHT22;36966;48.064;-0.792;2023-03-13T00:12:10;17.40;57.90
50955;DHT22;36966;48.064;-0.792;2023-03-13T00:14:29;17.50;58.00
50955;DHT22;36966;48.064;-0.792;2023-03-13T00:16:48;17.50;58.00
50955;DHT22;36966;48.064;-0.792;2023-03-13T00:19:07;17.50;58.00
50955;DHT22;36966;48.064;-0.792;2023-03-13T00:21:28;17.50;58.00
50955;DHT22;36966;48.064;-0.792;2023-03-13T00:23:48;17.40;58.30
50955;DHT22;36966;48.064;-0.792;2023-03-13T00:26:10;17.40;58.00
50955;DHT22;36966;48.064;-0.792;2023-03-13T00:28:31;17.40;58.20
50955;DHT22;36966;48.064;-0.792;2023-03-13T00:30:50;17.50;58.10
50955;DHT22;36966;48.064;-0.792;2023-03-13T00:33:09;17.50;58.00
50955;DHT22;36966;48.064;-0.792;2023-03-13T00:35:28;17.50;58.10
50955;DHT22;36966;48.064;-0.792;2023-03-13T00:37:47;17.40;58.00
50955;DHT22;36966;48.064;-0.792;2023-03-13T00:40:08;17.40;58.00
50955;DHT22;36966;48.064;-0.792;2023-03-13T00:42:27;17.40;58.20
50955;DHT22;36966;48.064;-0.792;2023-03-13T00:44:46;17.50;58.10
50955;DHT22;36966;48.064;-0.792;2023-03-13T00:47:06;17.40;57.90
50955;DHT22;36966;48.064;-0.792;2023-03-13T00:49:25;17.40;57.90
50955;DHT22;36966;48.064;-0.792;2023-03-13T00:51:44;17.40;58.00
50955;DHT22;36966;48.064;-0.792;2023-03-13T00:54:03;17.40;58.00
50955;DHT22;36966;48.064;-0.792;2023-03-13T00:56:23;17.50;57.90
50955;DHT22;36966;48.064;-0.792;2023-03-13T00:58:44;17.50;57.90
50955;DHT22;36966;48.064;-0.792;2023-03-13T01:03:26;17.40;57.80
50955;DHT22;36966;48.064;-0.792;2023-03-13T01:05:57;17.40;57.80
50955;DHT22;36966;48.064;-0.792;2023-03-13T01:08:17;17.40;58.20
50955;DHT22;36966;48.064;-0.792;2023-03-13T01:10:36;17.40;58.00
50955;DHT22;36966;48.064;-0.792;2023-03-13T01:12:55;17.40;57.90
50955;DHT22;36966;48.064;-0.792;2023-03-13T01:15:15;17.40;58.00
50955;DHT22;36966;48.064;-0.792;2023-03-13T01:17:34;17.40;57.80
50955;DHT22;36966;48.064;-0.792;2023-03-13T01:19:56;17.50;57.80
50955;DHT22;36966;48.064;-0.792;2023-03-13T01:22:16;17.50;57.90
50955;DHT22;36966;48.064;-0.792;2023-03-13T01:24:35;17.40;57.90
50955;DHT22;36966;48.064;-0.792;2023-03-13T01:26:54;17.40;57.90
50955;DHT22;36966;48.064;-0.792;2023-03-13T01:29:13;17.40;57.80
50955;DHT22;36966;48.064;-0.792;2023-03-13T01:31:34;17.40;57.80
50955;DHT22;36966;48.064;-0.792;2023-03-13T01:33:55;17.40;57.90
50955;DHT22;36966;48.064;-0.792;2023-03-13T01:36:15;17.40;57.80
50955;DHT22;36966;48.064;-0.792;2023-03-13T01:38:36;17.50;57.80
50955;DHT22;36966;48.064;-0.792;2023-03-13T01:40:55;17.50;57.80
50955;DHT22;36966;48.064;-0.792;2023-03-13T01:43:23;17.40;57.80
50955;DHT22;36966;48.064;-0.792;2023-03-13T01:51:12;17.40;58.00
50955;DHT22;36966;48.064;-0.792;2023-03-13T01:53:34;17.40;57.90
50955;DHT22;36966;48.064;-0.792;2023-03-13T01:55:55;17.40;58.10
50955;DHT22;36966;48.064;-0.792;2023-03-13T01:58:15;17.40;57.90
50955;DHT22;36966;48.064;-0.792;2023-03-13T02:00:35;17.40;57.90
50955;DHT22;36966;48.064;-0.792;2023-03-13T02:02:59;17.40;58.00
50955;DHT22;36966;48.064;-0.792;2023-03-13T02:05:24;17.40;57.90
50955;DHT22;36966;48.064;-0.792;2023-03-13T02:08:01;17.40;57.90
50955;DHT22;36966;48.064;-0.792;2023-03-13T02:10:22;17.40;57.90
50955;DHT22;36966;48.064;-0.792;2023-03-13T02:12:43;17.40;57.90
50955;DHT22;36966;48.064;-0.792;2023-03-13T02:15:09;17.40;58.10
50955;DHT22;36966;48.064;-0.792;2023-03-13T02:17:29;17.40;58.00
50955;DHT22;36966;48.064;-0.792;2023-03-13T02:19:50;17.40;58.00
50955;DHT22;36966;48.064;-0.792;2023-03-13T02:25:48;17.40;57.80
50955;DHT22;36966;48.064;-0.792;2023-03-13T02:27:36;17.40;57.90
50955;DHT22;36966;48.064;-0.792;2023-03-13T02:29:57;17.40;58.00
50955;DHT22;36966;48.064;-0.792;2023-03-13T02:32:16;17.40;57.90
50955;DHT22;36966;48.064;-0.792;2023-03-13T02:34:37;17.40;57.90
50955;DHT22;36966;48.064;-0.792;2023-03-13T02:36:58;17.40;58.10
50955;DHT22;36966;48.064;-0.792;2023-03-13T02:39:20;17.40;58.20
50955;DHT22;36966;48.064;-0.792;2023-03-13T02:41:41;17.40;58.00
50955;DHT22;36966;48.064;-0.792;2023-03-13T02:44:00;17.40;58.00
50955;DHT22;36966;48.064;-0.792;2023-03-13T02:46:20;17.40;57.90
50955;DHT22;36966;48.064;-0.792;2023-03-13T02:48:43;17.40;58.10
50955;DHT22;36966;48.064;-0.792;2023-03-13T02:51:07;17.40;58.10
50955;DHT22;36966;48.064;-0.792;2023-03-13T02:53:28;17.40;58.20
50955;DHT22;36966;48.064;-0.792;2023-03-13T02:55:47;17.40;58.20
50955;DHT22;36966;48.064;-0.792;2023-03-13T02:58:07;17.40;58.40
50955;DHT22;36966;48.064;-0.792;2023-03-13T03:00:27;17.40;58.50
50955;DHT22;36966;48.064;-0.792;2023-03-13T03:02:46;17.30;59.30
50955;DHT22;36966;48.064;-0.792;2023-03-13T03:05:05;17.30;58.70
50955;DHT22;36966;48.064;-0.792;2023-03-13T03:07:25;17.30;59.10
50955;DHT22;36966;48.064;-0.792;2023-03-13T03:09:44;17.30;59.00
50955;DHT22;36966;48.064;-0.792;2023-03-13T03:12:03;17.30;59.00
50955;DHT22;36966;48.064;-0.792;2023-03-13T03:14:23;17.30;59.20
50955;DHT22;36966;48.064;-0.792;2023-03-13T03:16:42;17.30;59.60
50955;DHT22;36966;48.064;-0.792;2023-03-13T03:19:01;17.30;59.20
50955;DHT22;36966;48.064;-0.792;2023-03-13T03:21:21;17.30;59.50
50955;DHT22;36966;48.064;-0.792;2023-03-13T03:23:41;17.30;59.50
50955;DHT22;36966;48.064;-0.792;2023-03-13T03:26:02;17.30;59.40
50955;DHT22;36966;48.064;-0.792;2023-03-13T03:28:22;17.30;59.50
50955;DHT22;36966;48.064;-0.792;2023-03-13T03:30:41;17.30;59.20
50955;DHT22;36966;48.064;-0.792;2023-03-13T03:33:02;17.30;59.30
50955;DHT22;36966;48.064;-0.792;2023-03-13T03:35:22;17.30;59.10
50955;DHT22;36966;48.064;-0.792;2023-03-13T03:37:41;17.30;59.30
50955;DHT22;36966;48.064;-0.792;2023-03-13T03:40:00;17.30;59.20
50955;DHT22;36966;48.064;-0.792;2023-03-13T03:42:19;17.30;59.40
50955;DHT22;36966;48.064;-0.792;2023-03-13T03:44:38;17.30;59.40
50955;DHT22;36966;48.064;-0.792;2023-03-13T03:46:58;17.30;59.50
50955;DHT22;36966;48.064;-0.792;2023-03-13T03:49:17;17.30;59.50
50955;DHT22;36966;48.064;-0.792;2023-03-13T03:51:36;17.30;59.50
50955;DHT22;36966;48.064;-0.792;2023-03-13T03:53:55;17.30;59.30
50955;DHT22;36966;48.064;-0.792;2023-03-13T03:56:14;17.30;59.50
50955;DHT22;36966;48.064;-0.792;2023-03-13T03:58:34;17.30;59.30
50955;DHT22;36966;48.064;-0.792;2023-03-13T04:00:56;17.30;59.20
50955;DHT22;36966;48.064;-0.792;2023-03-13T04:03:16;17.30;59.50
50955;DHT22;36966;48.064;-0.792;2023-03-13T04:05:35;17.30;59.40
50955;DHT22;36966;48.064;-0.792;2023-03-13T04:07:54;17.30;59.70
50955;DHT22;36966;48.064;-0.792;2023-03-13T04:10:13;17.30;59.50
50955;DHT22;36966;48.064;-0.792;2023-03-13T04:12:33;17.30;59.50
50955;DHT22;36966;48.064;-0.792;2023-03-13T04:14:52;17.30;59.50
50955;DHT22;36966;48.064;-0.792;2023-03-13T04:17:11;17.30;59.60
50955;DHT22;36966;48.064;-0.792;2023-03-13T04:19:31;17.30;59.50
50955;DHT22;36966;48.064;-0.792;2023-03-13T04:21:50;17.30;59.40
50955;DHT22;36966;48.064;-0.792;2023-03-13T04:24:09;17.30;59.40
50955;DHT22;36966;48.064;-0.792;2023-03-13T04:26:28;17.30;59.40
50955;DHT22;36966;48.064;-0.792;2023-03-13T04:28:47;17.40;59.30
50955;DHT22;36966;48.064;-0.792;2023-03-13T04:31:06;17.30;59.30
50955;DHT22;36966;48.064;-0.792;2023-03-13T04:33:26;17.30;59.20
50955;DHT22;36966;48.064;-0.792;2023-03-13T04:35:46;17.30;59.30
50955;DHT22;36966;48.064;-0.792;2023-03-13T04:38:05;17.30;59.50
50955;DHT22;36966;48.064;-0.792;2023-03-13T04:40:24;17.30;59.70
50955;DHT22;36966;48.064;-0.792;2023-03-13T04:42:43;17.30;59.80
50955;DHT22;36966;48.064;-0.792;2023-03-13T04:45:03;17.30;59.70
50955;DHT22;36966;48.064;-0.792;2023-03-13T04:47:22;17.30;59.60
50955;DHT22;36966;48.064;-0.792;2023-03-13T04:49:41;17.30;59.80
50955;DHT22;36966;48.064;-0.792;2023-03-13T04:52:00;17.20;59.80
50955;DHT22;36966;48.064;-0.792;2023-03-13T04:54:20;17.20;60.50
50955;DHT22;36966;48.064;-0.792;2023-03-13T04:56:40;17.20;60.50
50955;DHT22;36966;48.064;-0.792;2023-03-13T04:58:59;17.30;60.40
50955;DHT22;36966;48.064;-0.792;2023-03-13T05:01:18;17.20;60.30
50955;DHT22;36966;48.064;-0.792;2023-03-13T05:03:38;17.20;60.10
50955;DHT22;36966;48.064;-0.792;2023-03-13T05:05:57;17.30;59.90
50955;DHT22;36966;48.064;-0.792;2023-03-13T05:08:16;17.30;59.80
50955;DHT22;36966;48.064;-0.792;2023-03-13T05:10:35;17.20;59.90
50955;DHT22;36966;48.064;-0.792;2023-03-13T05:12:55;17.20;60.10
50955;DHT22;36966;48.064;-0.792;2023-03-13T05:15:14;17.30;59.90
50955;DHT22;36966;48.064;-0.792;2023-03-13T05:17:33;17.30;59.80
50955;DHT22;36966;48.064;-0.792;2023-03-13T05:19:52;17.20;59.80
50955;DHT22;36966;48.064;-0.792;2023-03-13T05:22:11;17.30;59.60
50955;DHT22;36966;48.064;-0.792;2023-03-13T05:24:31;17.30;59.70
50955;DHT22;36966;48.064;-0.792;2023-03-13T05:26:50;17.30;59.60
50955;DHT22;36966;48.064;-0.792;2023-03-13T05:29:09;17.30;59.80
50955;DHT22;36966;48.064;-0.792;2023-03-13T05:31:28;17.30;59.60
50955;DHT22;36966;48.064;-0.792;2023-03-13T05:33:47;17.30;59.70
50955;DHT22;36966;48.064;-0.792;2023-03-13T05:36:07;17.30;59.70
50955;DHT22;36966;48.064;-0.792;2023-03-13T05:38:26;17.20;59.60
50955;DHT22;36966;48.064;-0.792;2023-03-13T05:40:45;17.30;59.80
50955;DHT22;36966;48.064;-0.792;2023-03-13T05:43:04;17.30;59.50
50955;DHT22;36966;48.064;-0.792;2023-03-13T05:45:24;17.20;59.60
50955;DHT22;36966;48.064;-0.792;2023-03-13T05:47:43;17.30;59.90
50955;DHT22;36966;48.064;-0.792;2023-03-13T05:50:04;17.30;59.70
50955;DHT22;36966;48.064;-0.792;2023-03-13T05:52:24;17.30;59.60
50955;DHT22;36966;48.064;-0.792;2023-03-13T05:54:43;17.30;59.50
50955;DHT22;36966;48.064;-0.792;2023-03-13T05:57:02;17.30;59.50
50955;DHT22;36966;48.064;-0.792;2023-03-13T05:59:22;17.30;59.50
50955;DHT22;36966;48.064;-0.792;2023-03-13T06:01:41;17.30;59.50
50955;DHT22;36966;48.064;-0.792;2023-03-13T06:04:00;17.30;59.70
50955;DHT22;36966;48.064;-0.792;2023-03-13T06:06:19;17.30;59.50
50955;DHT22;36966;48.064;-0.792;2023-03-13T06:08:38;17.30;59.50
50955;DHT22;36966;48.064;-0.792;2023-03-13T06:10:59;17.30;59.60
50955;DHT22;36966;48.064;-0.792;2023-03-13T06:13:18;17.30;59.50
50955;DHT22;36966;48.064;-0.792;2023-03-13T06:15:37;17.30;59.60
50955;DHT22;36966;48.064;-0.792;2023-03-13T06:17:57;17.30;59.50
50955;DHT22;36966;48.064;-0.792;2023-03-13T06:20:16;17.30;59.50
50955;DHT22;36966;48.064;-0.792;2023-03-13T06:22:35;17.30;59.50
50955;DHT22;36966;48.064;-0.792;2023-03-13T06:24:54;17.30;59.50
50955;DHT22;36966;48.064;-0.792;2023-03-13T06:27:15;17.30;59.50
50955;DHT22;36966;48.064;-0.792;2023-03-13T06:29:35;17.30;59.50
50955;DHT22;36966;48.064;-0.792;2023-03-13T06:31:54;17.30;59.50
50955;DHT22;36966;48.064;-0.792;2023-03-13T06:34:13;17.30;59.60
50955;DHT22;36966;48.064;-0.792;2023-03-13T06:36:32;17.30;59.50
50955;DHT22;36966;48.064;-0.792;2023-03-13T06:38:51;17.30;59.50
50955;DHT22;36966;48.064;-0.792;2023-03-13T06:41:10;17.30;59.60
50955;DHT22;36966;48.064;-0.792;2023-03-13T06:43:30;17.30;59.70
50955;DHT22;36966;48.064;-0.792;2023-03-13T06:45:49;17.20;59.50
50955;DHT22;36966;48.064;-0.792;2023-03-13T06:48:08;17.30;59.60
50955;DHT22;36966;48.064;-0.792;2023-03-13T06:50:27;17.30;59.80
50955;DHT22;36966;48.064;-0.792;2023-03-13T06:52:46;17.30;59.60
50955;DHT22;36966;48.064;-0.792;2023-03-13T06:55:06;17.30;59.60
50955;DHT22;36966;48.064;-0.792;2023-03-13T06:57:26;17.30;59.70
50955;DHT22;36966;48.064;-0.792;2023-03-13T06:59:46;17.20;59.60
50955;DHT22;36966;48.064;-0.792;2023-03-13T07:02:05;17.30;59.60
50955;DHT22;36966;48.064;-0.792;2023-03-13T07:04:24;17.30;59.50
50955;DHT22;36966;48.064;-0.792;2023-03-13T07:06:43;17.30;59.60
50955;DHT22;36966;48.064;-0.792;2023-03-13T07:09:02;17.30;59.60
50955;DHT22;36966;48.064;-0.792;2023-03-13T07:11:22;17.30;59.70
50955;DHT22;36966;48.064;-0.792;2023-03-13T07:13:43;17.30;59.50
50955;DHT22;36966;48.064;-0.792;2023-03-13T07:16:07;17.30;59.50
50955;DHT22;36966;48.064;-0.792;2023-03-13T07:18:26;17.30;59.60
50955;DHT22;36966;48.064;-0.792;2023-03-13T07:20:55;17.30;59.50
50955;DHT22;36966;48.064;-0.792;2023-03-13T07:23:14;17.30;59.70
50955;DHT22;36966;48.064;-0.792;2023-03-13T07:25:34;17.30;59.70
50955;DHT22;36966;48.064;-0.792;2023-03-13T07:27:53;17.30;59.70
50955;DHT22;36966;48.064;-0.792;2023-03-13T07:30:12;17.30;59.80
50955;DHT22;36966;48.064;-0.792;2023-03-13T07:32:32;17.30;59.70
50955;DHT22;36966;48.064;-0.792;2023-03-13T07:34:52;17.30;59.70
50955;DHT22;36966;48.064;-0.792;2023-03-13T07:37:12;17.30;59.80
50955;DHT22;36966;48.064;-0.792;2023-03-13T07:39:31;17.30;59.80
50955;DHT22;36966;48.064;-0.792;2023-03-13T07:41:51;17.30;59.60
50955;DHT22;36966;48.064;-0.792;2023-03-13T07:44:10;17.30;59.80
50955;DHT22;36966;48.064;-0.792;2023-03-13T07:46:29;17.30;59.60
50955;DHT22;36966;48.064;-0.792;2023-03-13T07:48:48;17.30;59.60
50955;DHT22;36966;48.064;-0.792;2023-03-13T07:51:13;17.30;59.80
50955;DHT22;36966;48.064;-0.792;2023-03-13T07:53:33;17.30;59.70
50955;DHT22;36966;48.064;-0.792;2023-03-13T07:55:54;17.30;59.60
50955;DHT22;36966;48.064;-0.792;2023-03-13T07:58:14;17.30;59.60
50955;DHT22;36966;48.064;-0.792;2023-03-13T08:00:33;17.30;59.50
50955;DHT22;36966;48.064;-0.792;2023-03-13T08:02:52;17.40;59.60
50955;DHT22;36966;48.064;-0.792;2023-03-13T08:05:11;17.40;59.60
50955;DHT22;36966;48.064;-0.792;2023-03-13T08:07:30;17.40;59.60
50955;DHT22;36966;48.064;-0.792;2023-03-13T08:09:49;17.40;59.60
50955;DHT22;36966;48.064;-0.792;2023-03-13T08:12:09;17.40;59.60
50955;DHT22;36966;48.064;-0.792;2023-03-13T08:14:28;17.40;59.50
50955;DHT22;36966;48.064;-0.792;2023-03-13T08:16:47;17.40;59.40
50955;DHT22;36966;48.064;-0.792;2023-03-13T08:19:06;17.40;59.50
50955;DHT22;36966;48.064;-0.792;2023-03-13T08:21:28;17.40;59.40
50955;DHT22;36966;48.064;-0.792;2023-03-13T08:23:48;17.40;59.40
50955;DHT22;36966;48.064;-0.792;2023-03-13T08:26:12;17.40;59.40
50955;DHT22;36966;48.064;-0.792;2023-03-13T08:28:32;17.40;59.60
50955;DHT22;36966;48.064;-0.792;2023-03-13T08:30:52;17.40;59.60
50955;DHT22;36966;48.064;-0.792;2023-03-13T08:33:11;17.50;59.60
50955;DHT22;36966;48.064;-0.792;2023-03-13T08:35:30;17.50;59.60
50955;DHT22;36966;48.064;-0.792;2023-03-13T08:37:49;17.40;59.60
50955;DHT22;36966;48.064;-0.792;2023-03-13T08:40:08;17.50;59.70
50955;DHT22;36966;48.064;-0.792;2023-03-13T08:42:31;17.50;59.70
50955;DHT22;36966;48.064;-0.792;2023-03-13T08:44:50;17.50;59.70
50955;DHT22;36966;48.064;-0.792;2023-03-13T08:47:09;17.50;59.90
50955;DHT22;36966;48.064;-0.792;2023-03-13T08:49:29;17.50;59.90
50955;DHT22;36966;48.064;-0.792;2023-03-13T08:51:49;17.50;59.80
50955;DHT22;36966;48.064;-0.792;2023-03-13T08:54:08;17.50;60.20
50955;DHT22;36966;48.064;-0.792;2023-03-13T08:56:28;17.50;60.20
50955;DHT22;36966;48.064;-0.792;2023-03-13T08:58:50;17.50;60.30
50955;DHT22;36966;48.064;-0.792;2023-03-13T09:01:12;17.50;60.20
50955;DHT22;36966;48.064;-0.792;2023-03-13T09:03:31;17.50;60.40
50955;DHT22;36966;48.064;-0.792;2023-03-13T09:05:51;17.60;60.80
50955;DHT22;36966;48.064;-0.792;2023-03-13T09:08:10;17.60;61.30
50955;DHT22;36966;48.064;-0.792;2023-03-13T09:10:32;17.70;61.30
50955;DHT22;36966;48.064;-0.792;2023-03-13T09:12:51;17.70;61.20
50955;DHT22;36966;48.064;-0.792;2023-03-13T09:15:10;17.70;61.20
50955;DHT22;36966;48.064;-0.792;2023-03-13T09:17:29;17.70;61.10
50955;DHT22;36966;48.064;-0.792;2023-03-13T09:19:48;17.70;61.10
50955;DHT22;36966;48.064;-0.792;2023-03-13T09:22:07;17.70;61.00
50955;DHT22;36966;48.064;-0.792;2023-03-13T09:24:27;17.70;60.80
50955;DHT22;36966;48.064;-0.792;2023-03-13T09:26:46;17.70;60.60
50955;DHT22;36966;48.064;-0.792;2023-03-13T09:29:05;17.70;60.70
50955;DHT22;36966;48.064;-0.792;2023-03-13T09:31:27;17.70;60.60
50955;DHT22;36966;48.064;-0.792;2023-03-13T09:33:49;17.70;60.70
50955;DHT22;36966;48.064;-0.792;2023-03-13T09:36:09;17.70;60.60
50955;DHT22;36966;48.064;-0.792;2023-03-13T09:38:29;17.70;60.60
50955;DHT22;36966;48.064;-0.792;2023-03-13T09:40:50;17.70;60.60
50955;DHT22;36966;48.064;-0.792;2023-03-13T09:48:50;17.70;60.50
50955;DHT22;36966;48.064;-0.792;2023-03-13T09:51:31;17.70;60.50
50955;DHT22;36966;48.064;-0.792;2023-03-13T09:54:05;17.70;60.50
50955;DHT22;36966;48.064;-0.792;2023-03-13T09:56:31;17.70;60.50
50955;DHT22;36966;48.064;-0.792;2023-03-13T09:58:59;17.70;60.40
50955;DHT22;36966;48.064;-0.792;2023-03-13T10:01:28;17.70;60.40
50955;DHT22;36966;48.064;-0.792;2023-03-13T10:04:04;17.70;60.40
50955;DHT22;36966;48.064;-0.792;2023-03-13T10:06:27;17.70;60.40
50955;DHT22;36966;48.064;-0.792;2023-03-13T10:08:48;17.70;60.50
50955;DHT22;36966;48.064;-0.792;2023-03-13T10:11:19;17.70;60.40
50955;DHT22;36966;48.064;-0.792;2023-03-13T10:16:03;17.70;60.30
50955;DHT22;36966;48.064;-0.792;2023-03-13T10:18:25;17.70;60.20
50955;DHT22;36966;48.064;-0.792;2023-03-13T10:20:46;17.70;60.10
50955;DHT22;36966;48.064;-0.792;2023-03-13T10:23:15;17.70;60.10
50955;DHT22;36966;48.064;-0.792;2023-03-13T10:25:38;17.80;60.10
50955;DHT22;36966;48.064;-0.792;2023-03-13T10:27:58;17.80;60.00
50955;DHT22;36966;48.064;-0.792;2023-03-13T10:30:22;17.70;60.00
50955;DHT22;36966;48.064;-0.792;2023-03-13T10:32:42;17.80;59.90
50955;DHT22;36966;48.064;-0.792;2023-03-13T10:35:02;17.80;59.90
50955;DHT22;36966;48.064;-0.792;2023-03-13T10:37:30;17.80;60.30
50955;DHT22;36966;48.064;-0.792;2023-03-13T10:39:50;17.80;60.00
50955;DHT22;36966;48.064;-0.792;2023-03-13T10:42:30;17.90;59.90
50955;DHT22;36966;48.064;-0.792;2023-03-13T10:44:57;17.90;59.80
50955;DHT22;36966;48.064;-0.792;2023-03-13T10:47:18;17.90;59.70
50955;DHT22;36966;48.064;-0.792;2023-03-13T10:49:46;17.90;59.70
50955;DHT22;36966;48.064;-0.792;2023-03-13T10:52:47;17.90;59.60
50955;DHT22;36966;48.064;-0.792;2023-03-13T10:55:09;17.90;59.60
50955;DHT22;36966;48.064;-0.792;2023-03-13T10:57:31;18.00;59.60
50955;DHT22;36966;48.064;-0.792;2023-03-13T10:59:51;18.00;59.40
50955;DHT22;36966;48.064;-0.792;2023-03-13T11:02:47;18.00;59.40
50955;DHT22;36966;48.064;-0.792;2023-03-13T11:05:40;18.20;59.40
50955;DHT22;36966;48.064;-0.792;2023-03-13T11:08:11;18.20;58.90
50955;DHT22;36966;48.064;-0.792;2023-03-13T11:10:36;18.20;58.90
50955;DHT22;36966;48.064;-0.792;2023-03-13T11:12:57;18.30;58.90
50955;DHT22;36966;48.064;-0.792;2023-03-13T11:17:40;18.40;58.50
50955;DHT22;36966;48.064;-0.792;2023-03-13T11:20:21;18.40;58.30
50955;DHT22;36966;48.064;-0.792;2023-03-13T11:25:19;18.40;58.30
50955;DHT22;36966;48.064;-0.792;2023-03-13T11:33:57;18.40;57.70
50955;DHT22;36966;48.064;-0.792;2023-03-13T11:38:41;18.50;57.70
50955;DHT22;36966;48.064;-0.792;2023-03-13T11:51:53;18.60;57.40
50955;DHT22;36966;48.064;-0.792;2023-03-13T11:54:41;18.60;57.00
50955;DHT22;36966;48.064;-0.792;2023-03-13T11:57:17;18.70;57.20
50955;DHT22;36966;48.064;-0.792;2023-03-13T12:02:23;18.70;56.90
50955;DHT22;36966;48.064;-0.792;2023-03-13T12:04:50;18.70;56.90
50955;DHT22;36966;48.064;-0.792;2023-03-13T12:07:31;18.70;56.60
50955;DHT22;36966;48.064;-0.792;2023-03-13T12:15:21;18.70;56.80
50955;DHT22;36966;48.064;-0.792;2023-03-13T12:17:48;18.80;56.80
50955;DHT22;36966;48.064;-0.792;2023-03-13T12:20:23;18.80;56.60
50955;DHT22;36966;48.064;-0.792;2023-03-13T12:23:17;18.80;56.70
50955;DHT22;36966;48.064;-0.792;2023-03-13T12:25:42;18.80;56.60
50955;DHT22;36966;48.064;-0.792;2023-03-13T12:31:27;18.90;56.10
50955;DHT22;36966;48.064;-0.792;2023-03-13T12:39:14;18.90;56.10
50955;DHT22;36966;48.064;-0.792;2023-03-13T12:42:02;18.90;56.30
50955;DHT22;36966;48.064;-0.792;2023-03-13T12:44:26;18.80;56.40
50955;DHT22;36966;48.064;-0.792;2023-03-13T12:47:08;18.80;56.30
50955;DHT22;36966;48.064;-0.792;2023-03-13T12:52:21;18.80;56.40
50955;DHT22;36966;48.064;-0.792;2023-03-13T13:00:18;18.80;56.00
50955;DHT22;36966;48.064;-0.792;2023-03-13T13:02:39;18.80;55.60
50955;DHT22;36966;48.064;-0.792;2023-03-13T13:05:00;18.80;55.40
50955;DHT22;36966;48.064;-0.792;2023-03-13T13:07:30;18.90;55.70
50955;DHT22;36966;48.064;-0.792;2023-03-13T13:12:29;18.80;55.50
50955;DHT22;36966;48.064;-0.792;2023-03-13T13:24:59;18.70;55.00
50955;DHT22;36966;48.064;-0.792;2023-03-13T13:27:45;18.70;55.20
50955;DHT22;36966;48.064;-0.792;2023-03-13T13:32:45;18.70;55.60
50955;DHT22;36966;48.064;-0.792;2023-03-13T13:35:30;18.70;55.50
50955;DHT22;36966;48.064;-0.792;2023-03-13T13:37:50;18.70;55.10
50955;DHT22;36966;48.064;-0.792;2023-03-13T13:40:17;18.70;55.30
50955;DHT22;36966;48.064;-0.792;2023-03-13T13:42:45;18.70;55.00
50955;DHT22;36966;48.064;-0.792;2023-03-13T13:47:33;18.70;54.70
50955;DHT22;36966;48.064;-0.792;2023-03-13T13:49:55;18.70;54.70
50955;DHT22;36966;48.064;-0.792;2023-03-13T13:52:29;18.70;54.60
50955;DHT22;36966;48.064;-0.792;2023-03-13T13:54:54;18.70;54.60
50955;DHT22;36966;48.064;-0.792;2023-03-13T13:57:33;18.70;54.20
50955;DHT22;36966;48.064;-0.792;2023-03-13T14:00:20;18.70;54.80
50955;DHT22;36966;48.064;-0.792;2023-03-13T14:02:53;18.70;54.50
50955;DHT22;36966;48.064;-0.792;2023-03-13T14:10:05;18.70;54.60
50955;DHT22;36966;48.064;-0.792;2023-03-13T14:12:31;18.70;54.50
50955;DHT22;36966;48.064;-0.792;2023-03-13T14:17:30;18.70;54.10
50955;DHT22;36966;48.064;-0.792;2023-03-13T14:19:49;18.70;54.30
50955;DHT22;36966;48.064;-0.792;2023-03-13T14:22:10;18.70;54.40
50955;DHT22;36966;48.064;-0.792;2023-03-13T14:24:29;18.70;54.20
50955;DHT22;36966;48.064;-0.792;2023-03-13T14:26:49;18.70;54.20
50955;DHT22;36966;48.064;-0.792;2023-03-13T14:29:15;18.70;53.80
50955;DHT22;36966;48.064;-0.792;2023-03-13T14:31:37;18.70;53.80
50955;DHT22;36966;48.064;-0.792;2023-03-13T14:34:05;18.80;54.00
50955;DHT22;36966;48.064;-0.792;2023-03-13T14:36:25;18.70;54.10
50955;DHT22;36966;48.064;-0.792;2023-03-13T14:38:56;18.70;54.10
50955;DHT22;36966;48.064;-0.792;2023-03-13T14:41:28;18.70;54.30
50955;DHT22;36966;48.064;-0.792;2023-03-13T14:43:48;18.70;54.30
50955;DHT22;36966;48.064;-0.792;2023-03-13T14:46:36;18.70;54.30
50955;DHT22;36966;48.064;-0.792;2023-03-13T14:48:55;18.70;54.20
50955;DHT22;36966;48.064;-0.792;2023-03-13T14:51:24;18.70;53.70
50955;DHT22;36966;48.064;-0.792;2023-03-13T14:53:59;18.70;53.80
50955;DHT22;36966;48.064;-0.792;2023-03-13T14:56:19;18.70;53.70
50955;DHT22;36966;48.064;-0.792;2023-03-13T14:58:39;18.70;53.70
50955;DHT22;36966;48.064;-0.792;2023-03-13T15:01:20;18.70;53.20
50955;DHT22;36966;48.064;-0.792;2023-03-13T15:03:44;18.70;53.50
50955;DHT22;36966;48.064;-0.792;2023-03-13T15:08:29;18.70;53.60
50955;DHT22;36966;48.064;-0.792;2023-03-13T15:10:49;18.70;53.50
50955;DHT22;36966;48.064;-0.792;2023-03-13T15:15:38;18.70;53.50
50955;DHT22;36966;48.064;-0.792;2023-03-13T15:17:57;18.70;53.50
50955;DHT22;36966;48.064;-0.792;2023-03-13T15:20:16;18.60;53.40
50955;DHT22;36966;48.064;-0.792;2023-03-13T15:22:38;18.60;53.30
50955;DHT22;36966;48.064;-0.792;2023-03-13T15:24:58;18.60;52.90
50955;DHT22;36966;48.064;-0.792;2023-03-13T15:27:21;18.60;53.10
50955;DHT22;36966;48.064;-0.792;2023-03-13T15:29:40;18.60;53.60
50955;DHT22;36966;48.064;-0.792;2023-03-13T15:32:00;18.60;53.40
50955;DHT22;36966;48.064;-0.792;2023-03-13T15:34:22;18.60;53.70
50955;DHT22;36966;48.064;-0.792;2023-03-13T15:36:43;18.60;53.60
50955;DHT22;36966;48.064;-0.792;2023-03-13T15:39:02;18.60;53.90
50955;DHT22;36966;48.064;-0.792;2023-03-13T15:41:23;18.60;53.90
50955;DHT22;36966;48.064;-0.792;2023-03-13T15:43:43;18.60;53.90
50955;DHT22;36966;48.064;-0.792;2023-03-13T15:46:08;18.60;54.00
50955;DHT22;36966;48.064;-0.792;2023-03-13T15:48:29;18.60;53.90
50955;DHT22;36966;48.064;-0.792;2023-03-13T15:51:00;18.50;54.10
50955;DHT22;36966;48.064;-0.792;2023-03-13T15:53:31;18.50;54.10
50955;DHT22;36966;48.064;-0.792;2023-03-13T15:55:52;18.50;54.00
50955;DHT22;36966;48.064;-0.792;2023-03-13T15:58:12;18.50;54.10
50955;DHT22;36966;48.064;-0.792;2023-03-13T16:00:32;18.50;54.20
50955;DHT22;36966;48.064;-0.792;2023-03-13T16:02:51;18.50;54.10
50955;DHT22;36966;48.064;-0.792;2023-03-13T16:05:10;18.50;54.20
50955;DHT22;36966;48.064;-0.792;2023-03-13T16:07:29;18.50;54.20
50955;DHT22;36966;48.064;-0.792;2023-03-13T16:09:49;18.50;54.30
50955;DHT22;36966;48.064;-0.792;2023-03-13T16:12:10;18.50;54.20
50955;DHT22;36966;48.064;-0.792;2023-03-13T16:14:29;18.50;54.30
50955;DHT22;36966;48.064;-0.792;2023-03-13T16:16:48;18.50;54.40
50955;DHT22;36966;48.064;-0.792;2023-03-13T16:19:10;18.50;54.40
50955;DHT22;36966;48.064;-0.792;2023-03-13T16:21:33;18.40;54.20